ADDS METAR Data INFO
IDs: Format: Raw Decoded Include TAF

Data at: 1556 UTC 12 Dec 2017

KAXN 121553Z AUTO 21008KT 10SM FEW020 BKN032 OVC040 M08/M11 A3007 RMK AO2 SLP214 T10831111
KAXN 121535Z AUTO 21008KT 10SM SCT015 SCT028 OVC035 M09/M12 A3009 RMK AO2 T10891117
KAXN 121453Z AUTO 22009KT 9SM BKN016 OVC023 M10/M12 A3011 RMK AO2 SLP227 T11001122 56026
KAXN 121353Z AUTO 22007KT 10SM OVC020 M11/M13 A3013 RMK AO2 SLP234 T11111133
KAXN 121323Z AUTO 20004KT 10SM BKN022 BKN041 OVC050 M11/M13 A3014 RMK AO2 T11111133
KAXN 121253Z AUTO 25005KT 10SM FEW048 OVC060 M11/M14 A3016 RMK AO2 SLP247 T11111139
KAXN 121153Z AUTO 26003KT 10SM OVC060 M12/M15 A3019 RMK AO2 SLP255 T11221150 11122 21156 58024
KAXN 121134Z AUTO 27004KT 10SM SCT018 OVC060 M13/M15 A3020 RMK AO2 T11281150
KAXN 121053Z AUTO 28009KT 10SM OVC015 M13/M16 A3022 RMK AO2 SLP264 T11331156
KAXN 121022Z AUTO 30007KT 10SM BKN017 OVC070 M13/M16 A3023 RMK AO2 T11331156
KAXN 120953Z AUTO 30006KT 10SM OVC070 M14/M16 A3024 RMK AO2 SLP271 T11441161
KAXN 120853Z AUTO 28008KT 10SM CLR M15/M17 A3026 RMK AO2 SLP278 T11501172 53002
KAXN 120753Z AUTO 29008KT 10SM CLR M15/M17 A3026 RMK AO2 SLP276 T11501172
KAXN 120653Z AUTO 32006KT 10SM CLR M15/M17 A3026 RMK AO2 SLP276 T11501172
KAXN 120553Z AUTO 34009KT 10SM CLR M14/M17 A3025 RMK AO2 SLP274 T11441167 11100 21144 400171144 58002
KAXN 120453Z AUTO 33009KT 10SM CLR M14/M17 A3027 RMK AO2 SLP276 T11391167
KAXN 120353Z AUTO 34010KT 10SM CLR M13/M16 A3027 RMK AO2 SLP278 T11331161
KAXN 120253Z AUTO 32010KT 10SM CLR M13/M16 A3026 RMK AO2 SLP273 T11281156 51020
KAXN 120153Z AUTO 33012KT 10SM CLR M12/M15 A3025 RMK AO2 SLP268 T11171150
KAXN 120053Z AUTO 33013KT 10SM CLR M11/M14 A3023 RMK AO2 SLP263 T11111139
KAXN 112353Z AUTO 33014G22KT 10SM FEW012 M10/M13 A3020 RMK AO2 SLP252 T11001128 11011 21100 51043
KAXN 112325Z AUTO 33014G22KT 10SM SCT018 M09/M13 A3018 RMK AO2 T10941128
KAXN 112253Z AUTO 34014G26KT 10SM OVC018 M08/M12 A3016 RMK AO2 PK WND 33026/2244 SLP237 T10831117
KAXN 112216Z AUTO 33014G22KT 10SM BKN019 M07/M11 A3012 RMK AO2 T10671106
KAXN 112153Z AUTO 33014G26KT 10SM CLR M07/M11 A3011 RMK AO2 PK WND 34027/2059 SLP218 T10671111
KAXN 112133Z AUTO 34017G24KT 10SM SCT022 M06/M11 A3009 RMK AO2 PK WND 34027/2059 T10561106
KAXN 112053Z AUTO 34018G25KT 10SM OVC020 M04/M09 A3006 RMK AO2 PK WND 34032/2013 SLP203 T10441094 51040
KAXN 111953Z AUTO 33018G28KT 10SM OVC017 M04/M08 A3003 RMK AO2 PK WND 32028/1951 SLP191 T10391078
KAXN 111924Z AUTO 33018G28KT 10SM OVC015 M03/M07 A3001 RMK AO2 PK WND 34028/1857 T10331067
KAXN 111853Z AUTO 34020G26KT 10SM OVC013 M03/M06 A2999 RMK AO2 PK WND 34033/1827 SLP176 T10281056
KAXN 111753Z AUTO 35020G28KT 10SM OVC011 M02/M04 A2994 RMK AO2 PK WND 33032/1717 SLP159 T10171039 10017 21022 52050
KAXN 111713Z AUTO 35022G30KT 10SM OVC014 M01/M03 A2991 RMK AO2 PK WND 36030/1712 T10061028
KAXN 111653Z AUTO 35021G29KT 10SM OVC015 00/M03 A2990 RMK AO2 PK WND 34030/1554 SLP143 T00001028
KAXN 111623Z AUTO 34022G29KT 10SM SCT007 OVC012 01/M02 A2986 RMK AO2 PK WND 34030/1554 T00061017
KAXN 111553Z AUTO 33025G33KT 10SM BKN007 OVC012 01/M01 A2983 RMK AO2 PK WND 32033/1553 SLP120 T00061011
KAXN 111453Z AUTO 34016G29KT 10SM OVC012 02/M01 A2979 RMK AO2 PK WND 33029/1448 SLP104 T00171006 53030
KAXN 111353Z AUTO 33014KT 10SM BKN014 BKN024 OVC030 01/M01 A2975 RMK AO2 SLP093 T00111006
KAXN 111324Z AUTO 32009KT 10SM SCT021 BKN027 OVC050 01/M01 A2973 RMK AO2 T00061011
KAXN 111253Z AUTO 31010KT 10SM FEW046 M01/M02 A2972 RMK AO2 SLP083 T10061022
KAXN 111153Z AUTO 29007KT 10SM FEW120 M02/M04 A2969 RMK AO2 SLP076 60001 70006 I6001 T10221039 11006 21033 58001
KAXN 111141Z AUTO 26005KT 10SM SCT030 M03/M04 A2969 RMK AO2 T10281039
KAXN 111112Z AUTO 23005KT 10SM BKN028 BKN110 M02/M03 A2970 RMK AO2 T10171028
KAXN 111053Z AUTO 25006KT 10SM FEW110 M02/M03 A2970 RMK AO2 SLP076 T10221033
KAXN 110953Z AUTO 23006KT 10SM SCT043 BKN050 OVC060 M01/M02 A2970 RMK AO2 UPB22E29FZRAB29E43SNB09E22 SLP075 P0001 I1001 T10061022
KAXN 110949Z AUTO 22006KT 10SM BKN047 OVC060 M01/M02 A2970 RMK AO2 UPB22E29FZRAB29E43SNB09E22 P0001 I1001
KAXN 110935Z AUTO 21010KT 8SM -FZRA BKN045 OVC055 M01/M03 A2971 RMK AO2 UPB22E29FZRAB29SNB09E22 PRESFR P0001 I1001 T10111028
KAXN 110853Z AUTO 22009KT 10SM OVC046 M02/M04 A2974 RMK AO2 SLP090 60000 T10221044 56038
KAXN 110753Z AUTO 21005KT 10SM BKN090 M03/M04 A2978 RMK AO2 SLP104 T10281044
KAXN 110653Z AUTO 20007KT 10SM OVC110 M02/M04 A2981 RMK AO2 SNE0558 SLP115 P0000 T10221044
KAXN 110553Z AUTO 21010KT 4SM -SN BR SCT025 OVC035 M02/M03 A2986 RMK AO2 SLP131 P0003 60005 T10221033 11022 21044 410111044 56028
KAXN 110549Z AUTO 21010KT 3SM -SN BR SCT023 OVC035 M02/M03 A2986 RMK AO2 P0003
KAXN 110543Z AUTO 21010KT 2SM -SN BR BKN023 BKN031 OVC035 M02/M03 A2986 RMK AO2 P0003 T10221033
KAXN 110524Z AUTO 20008KT 1 1/2SM -SN BR OVC017 M03/M03 A2986 RMK AO2 P0002 T10281033
KAXN 110517Z AUTO 20007KT 1SM -SN BR VV014 M03/M03 A2987 RMK AO2 P0002 T10281033
KAXN 110453Z AUTO 22007KT 3/4SM -SN BR BKN013 OVC029 M03/M04 A2989 RMK AO2 SNB0359 SLP143 P0002 T10281039
KAXN 110451Z AUTO 22007KT 3/4SM -SN BR BKN013 OVC029 M03/M04 A2989 RMK AO2 SNB0359 P0002
KAXN 110442Z AUTO 22007KT 1 1/4SM -SN BR OVC025 M03/M04 A2989 RMK AO2 SNB0359 P0001 T10281039
KAXN 110431Z AUTO 21006KT 2 1/2SM -SN BR OVC029 M02/M04 A2989 RMK AO2 SNB0359 P0000 T10221039
KAXN 110419Z AUTO 19007KT 3SM -SN BR OVC033 M03/M04 A2988 RMK AO2 SNB0359 P0000 T10281044
KAXN 110409Z AUTO 18006KT 2SM -SN BR OVC029 M02/M04 A2988 RMK AO2 SNB0359 PRESFR P0000 T10221044